sensor_id;sensor_type;location;lat;lon;timestamp;pressure;altitude;pressure_sealevel;temperature;humidity
13312;BME280;34033;48.672;9.376;2023-02-11T00:00:56;100624.94;;;1.32;64.25
13312;BME280;34033;48.672;9.376;2023-02-11T00:03:22;100613.91;;;1.32;64.21
13312;BME280;34033;48.672;9.376;2023-02-11T00:06:00;100617.78;;;1.31;64.52
13312;BME280;34033;48.672;9.376;2023-02-11T00:08:26;100614.19;;;1.25;63.71
13312;BME280;34033;48.672;9.376;2023-02-11T00:10:56;100617.22;;;1.23;63.18
13312;BME280;34033;48.672;9.376;2023-02-11T00:13:22;100620.53;;;1.20;62.41
13312;BME280;34033;48.672;9.376;2023-02-11T00:15:48;100615.84;;;1.21;62.47
13312;BME280;34033;48.672;9.376;2023-02-11T00:18:14;100619.41;;;1.16;62.79
13312;BME280;34033;48.672;9.376;2023-02-11T00:20:40;100622.16;;;1.11;62.34
13312;BME280;34033;48.672;9.376;2023-02-11T00:23:06;100616.66;;;1.06;63.12
13312;BME280;34033;48.672;9.376;2023-02-11T00:25:31;100622.72;;;1.08;64.25
13312;BME280;34033;48.672;9.376;2023-02-11T00:27:56;100626.31;;;1.09;63.33
13312;BME280;34033;48.672;9.376;2023-02-11T00:30:22;100621.06;;;1.07;63.46
13312;BME280;34033;48.672;9.376;2023-02-11T00:32:47;100630.44;;;1.06;63.15
13312;BME280;34033;48.672;9.376;2023-02-11T00:35:12;100626.84;;;1.06;63.63
13312;BME280;34033;48.672;9.376;2023-02-11T00:37:38;100611.72;;;1.03;64.09
13312;BME280;34033;48.672;9.376;2023-02-11T00:40:04;100617.75;;;1.00;63.81
13312;BME280;34033;48.672;9.376;2023-02-11T00:42:29;100615.56;;;1.02;63.46
13312;BME280;34033;48.672;9.376;2023-02-11T00:44:55;100613.06;;;1.01;63.66
13312;BME280;34033;48.672;9.376;2023-02-11T00:47:20;100612.53;;;0.99;63.04
13312;BME280;34033;48.672;9.376;2023-02-11T00:49:45;100612.25;;;0.95;62.46
13312;BME280;34033;48.672;9.376;2023-02-11T00:52:11;100607.84;;;0.94;62.25
13312;BME280;34033;48.672;9.376;2023-02-11T00:54:36;100611.97;;;0.92;62.60
13312;BME280;34033;48.672;9.376;2023-02-11T00:57:01;100605.38;;;0.88;63.64
13312;BME280;34033;48.672;9.376;2023-02-11T00:59:26;100598.75;;;0.89;63.27
13312;BME280;34033;48.672;9.376;2023-02-11T01:01:52;100601.50;;;0.83;62.44
13312;BME280;34033;48.672;9.376;2023-02-11T01:04:17;100595.97;;;0.83;62.96
13312;BME280;34033;48.672;9.376;2023-02-11T01:06:43;100603.72;;;0.76;62.43
13312;BME280;34033;48.672;9.376;2023-02-11T01:09:08;100604.50;;;0.72;63.24
13312;BME280;34033;48.672;9.376;2023-02-11T01:11:33;100610.84;;;0.72;63.92
13312;BME280;34033;48.672;9.376;2023-02-11T01:13:59;100594.31;;;0.67;63.62
13312;BME280;34033;48.672;9.376;2023-02-11T01:16:24;100596.53;;;0.70;64.30
13312;BME280;34033;48.672;9.376;2023-02-11T01:18:49;100589.38;;;0.69;63.88
13312;BME280;34033;48.672;9.376;2023-02-11T01:21:15;100591.56;;;0.67;63.79
13312;BME280;34033;48.672;9.376;2023-02-11T01:23:40;100584.41;;;0.66;64.16
13312;BME280;34033;48.672;9.376;2023-02-11T01:26:06;100579.72;;;0.67;64.82
13312;BME280;34033;48.672;9.376;2023-02-11T01:28:31;100581.94;;;0.70;65.18
13312;BME280;34033;48.672;9.376;2023-02-11T01:30:59;100567.63;;;0.73;63.54
13312;BME280;34033;48.672;9.376;2023-02-11T01:33:25;100565.69;;;0.73;63.68
13312;BME280;34033;48.672;9.376;2023-02-11T01:35:50;100559.66;;;0.71;63.99
13312;BME280;34033;48.672;9.376;2023-02-11T01:38:24;100554.41;;;0.70;63.51
13312;BME280;34033;48.672;9.376;2023-02-11T01:40:52;100558.00;;;0.70;63.67
13312;BME280;34033;48.672;9.376;2023-02-11T01:43:18;100551.38;;;0.66;64.29
13312;BME280;34033;48.672;9.376;2023-02-11T01:48:12;100554.69;;;0.58;63.85
13312;BME280;34033;48.672;9.376;2023-02-11T01:50:39;100549.69;;;0.55;64.66
13312;BME280;34033;48.672;9.376;2023-02-11T01:53:05;100557.16;;;0.50;64.01
13312;BME280;34033;48.672;9.376;2023-02-11T01:55:51;100550.25;;;0.47;64.35
13312;BME280;34033;48.672;9.376;2023-02-11T01:58:37;100553.56;;;0.44;64.59
13312;BME280;34033;48.672;9.376;2023-02-11T02:01:03;100551.91;;;0.33;65.02
13312;BME280;34033;48.672;9.376;2023-02-11T02:03:33;100544.47;;;0.44;65.62
13312;BME280;34033;48.672;9.376;2023-02-11T02:06:32;100548.59;;;0.46;65.19
13312;BME280;34033;48.672;9.376;2023-02-11T02:09:04;100548.34;;;0.48;64.96
13312;BME280;34033;48.672;9.376;2023-02-11T02:11:31;100541.44;;;0.50;65.70
13312;BME280;34033;48.672;9.376;2023-02-11T02:13:56;100550.81;;;0.49;65.14
13312;BME280;34033;48.672;9.376;2023-02-11T02:16:28;100538.97;;;0.49;65.07
13312;BME280;34033;48.672;9.376;2023-02-11T02:40:30;100526.84;;;0.45;65.61
13312;BME280;34033;48.672;9.376;2023-02-11T02:42:59;100523.84;;;0.46;65.86
13312;BME280;34033;48.672;9.376;2023-02-11T02:45:25;100527.41;;;0.47;65.31
13312;BME280;34033;48.672;9.376;2023-02-11T02:47:50;100527.16;;;0.43;64.86
13312;BME280;34033;48.672;9.376;2023-02-11T02:50:21;100524.38;;;0.38;65.08
13312;BME280;34033;48.672;9.376;2023-02-11T03:02:09;100502.06;;;0.39;66.14
13312;BME280;34033;48.672;9.376;2023-02-11T03:10:32;100488.06;;;0.46;66.71
13312;BME280;34033;48.672;9.376;2023-02-11T03:13:00;100492.47;;;0.47;66.63
13312;BME280;34033;48.672;9.376;2023-02-11T03:15:29;100495.22;;;0.42;64.93
13312;BME280;34033;48.672;9.376;2023-02-11T03:17:58;100492.16;;;0.33;65.13
13312;BME280;34033;48.672;9.376;2023-02-11T03:20:26;100494.66;;;0.30;64.91
13312;BME280;34033;48.672;9.376;2023-02-11T03:23:08;100488.59;;;0.28;65.74
13312;BME280;34033;48.672;9.376;2023-02-11T03:25:41;100495.16;;;0.12;66.84
13312;BME280;34033;48.672;9.376;2023-02-11T03:28:17;100486.91;;;0.17;66.64
13312;BME280;34033;48.672;9.376;2023-02-11T03:30:57;100492.44;;;0.22;66.85
13312;BME280;34033;48.672;9.376;2023-02-11T03:33:48;100495.16;;;0.12;66.90
13312;BME280;34033;48.672;9.376;2023-02-11T03:36:21;100493.78;;;0.04;67.00
13312;BME280;34033;48.672;9.376;2023-02-11T03:38:50;100503.97;;;0.14;67.44
13312;BME280;34033;48.672;9.376;2023-02-11T03:41:20;100489.97;;;0.20;67.70
13312;BME280;34033;48.672;9.376;2023-02-11T03:43:54;100492.44;;;0.27;67.24
13312;BME280;34033;48.672;9.376;2023-02-11T03:46:24;100489.72;;;0.32;67.93
13312;BME280;34033;48.672;9.376;2023-02-11T03:48:55;100492.19;;;0.38;67.05
13312;BME280;34033;48.672;9.376;2023-02-11T03:51:24;100499.31;;;0.39;66.31
13312;BME280;34033;48.672;9.376;2023-02-11T03:53:54;100495.22;;;0.42;65.63
13312;BME280;34033;48.672;9.376;2023-02-11T03:56:26;100487.53;;;0.44;66.04
13312;BME280;34033;48.672;9.376;2023-02-11T03:58:53;100493.56;;;0.46;65.48
13312;BME280;34033;48.672;9.376;2023-02-11T04:01:18;100496.31;;;0.46;66.12
13312;BME280;34033;48.672;9.376;2023-02-11T04:03:43;100506.50;;;0.46;65.89
13312;BME280;34033;48.672;9.376;2023-02-11T04:06:09;100502.91;;;0.50;66.32
13312;BME280;34033;48.672;9.376;2023-02-11T04:08:34;100505.66;;;0.55;66.71
13312;BME280;34033;48.672;9.376;2023-02-11T04:10:59;100512.28;;;0.59;66.75
13312;BME280;34033;48.672;9.376;2023-02-11T04:13:25;100510.06;;;0.61;66.96
13312;BME280;34033;48.672;9.376;2023-02-11T04:15:50;100508.16;;;0.62;66.14
13312;BME280;34033;48.672;9.376;2023-02-11T04:18:15;100517.53;;;0.66;66.74
13312;BME280;34033;48.672;9.376;2023-02-11T04:20:41;100520.56;;;0.69;66.69
13312;BME280;34033;48.672;9.376;2023-02-11T04:23:06;100526.88;;;0.70;66.14
13312;BME280;34033;48.672;9.376;2023-02-11T04:25:32;100527.97;;;0.74;65.63
13312;BME280;34033;48.672;9.376;2023-02-11T04:27:57;100534.88;;;0.76;66.17
13312;BME280;34033;48.672;9.376;2023-02-11T04:30:22;100533.47;;;0.79;65.48
13312;BME280;34033;48.672;9.376;2023-02-11T04:32:48;100528.81;;;0.79;65.33
13312;BME280;34033;48.672;9.376;2023-02-11T04:35:13;100529.06;;;0.83;66.17
13312;BME280;34033;48.672;9.376;2023-02-11T04:37:38;100520.53;;;0.84;65.87
13312;BME280;34033;48.672;9.376;2023-02-11T04:40:04;100516.69;;;0.86;65.95
13312;BME280;34033;48.672;9.376;2023-02-11T04:42:30;100523.84;;;0.87;66.18
13312;BME280;34033;48.672;9.376;2023-02-11T04:44:55;100510.34;;;0.85;66.26
13312;BME280;34033;48.672;9.376;2023-02-11T04:47:20;100527.13;;;0.89;66.86
13312;BME280;34033;48.672;9.376;2023-02-11T04:49:45;100523.28;;;0.90;65.61
13312;BME280;34033;48.672;9.376;2023-02-11T04:52:11;100523.03;;;0.91;64.87
13312;BME280;34033;48.672;9.376;2023-02-11T04:54:36;100520.53;;;0.90;65.20
13312;BME280;34033;48.672;9.376;2023-02-11T04:57:02;100518.34;;;0.92;66.48
13312;BME280;34033;48.672;9.376;2023-02-11T04:59:27;100522.19;;;0.96;67.02
13312;BME280;34033;48.672;9.376;2023-02-11T05:01:52;100508.97;;;0.98;66.88
13312;BME280;34033;48.672;9.376;2023-02-11T05:04:18;100498.50;;;1.00;67.35
13312;BME280;34033;48.672;9.376;2023-02-11T05:06:43;100504.00;;;1.05;66.74
13312;BME280;34033;48.672;9.376;2023-02-11T05:09:12;100506.47;;;1.06;66.07
13312;BME280;34033;48.672;9.376;2023-02-11T05:11:38;100514.47;;;1.08;66.51
13312;BME280;34033;48.672;9.376;2023-02-11T05:14:06;100498.19;;;1.11;67.06
13312;BME280;34033;48.672;9.376;2023-02-11T05:16:31;100484.72;;;1.10;66.90
13312;BME280;34033;48.672;9.376;2023-02-11T05:18:56;100478.66;;;1.13;67.06
13312;BME280;34033;48.672;9.376;2023-02-11T05:21:22;100474.22;;;1.17;66.13
13312;BME280;34033;48.672;9.376;2023-02-11T05:23:48;100472.28;;;1.17;66.40
13312;BME280;34033;48.672;9.376;2023-02-11T05:26:13;100465.13;;;1.16;66.12
13312;BME280;34033;48.672;9.376;2023-02-11T05:28:41;100454.94;;;1.17;66.65
13312;BME280;34033;48.672;9.376;2023-02-11T05:31:07;100449.97;;;1.19;67.21
13312;BME280;34033;48.672;9.376;2023-02-11T05:33:32;100437.84;;;1.20;67.55
13312;BME280;34033;48.672;9.376;2023-02-11T05:36:02;100447.22;;;1.24;66.13
13312;BME280;34033;48.672;9.376;2023-02-11T05:38:28;100431.50;;;1.24;66.28
13312;BME280;34033;48.672;9.376;2023-02-11T05:40:54;100437.00;;;1.24;66.41
13312;BME280;34033;48.672;9.376;2023-02-11T05:43:19;100439.75;;;1.30;67.02
13312;BME280;34033;48.672;9.376;2023-02-11T05:45:45;100445.50;;;1.33;67.14
13312;BME280;34033;48.672;9.376;2023-02-11T05:48:10;100429.78;;;1.39;67.42
13312;BME280;34033;48.672;9.376;2023-02-11T05:50:35;100427.59;;;1.41;66.92
13312;BME280;34033;48.672;9.376;2023-02-11T05:53:01;100435.28;;;1.44;67.03
13312;BME280;34033;48.672;9.376;2023-02-11T05:55:26;100449.34;;;1.42;67.04
13312;BME280;34033;48.672;9.376;2023-02-11T05:57:52;100440.78;;;1.44;67.69
13312;BME280;34033;48.672;9.376;2023-02-11T06:00:17;100442.16;;;1.46;66.66
13312;BME280;34033;48.672;9.376;2023-02-11T06:02:43;100432.53;;;1.49;67.13
13312;BME280;34033;48.672;9.376;2023-02-11T06:05:08;100427.25;;;1.52;66.47
13312;BME280;34033;48.672;9.376;2023-02-11T06:07:33;100420.25;;;1.75;72.34
13312;BME280;34033;48.672;9.376;2023-02-11T06:09:59;100425.38;;;1.92;70.04
13312;BME280;34033;48.672;9.376;2023-02-11T06:12:24;100421.94;;;2.10;69.30
13312;BME280;34033;48.672;9.376;2023-02-11T06:14:50;100424.03;;;2.28;68.34
13312;BME280;34033;48.672;9.376;2023-02-11T06:17:16;100430.84;;;2.41;68.21
13312;BME280;34033;48.672;9.376;2023-02-11T06:19:41;100443.97;;;2.54;67.58
13312;BME280;34033;48.672;9.376;2023-02-11T06:22:06;100449.69;;;2.63;66.28
13312;BME280;34033;48.672;9.376;2023-02-11T06:24:32;100458.50;;;2.65;64.59
13312;BME280;34033;48.672;9.376;2023-02-11T06:26:57;100457.44;;;2.61;64.18
13312;BME280;34033;48.672;9.376;2023-02-11T06:29:22;100449.66;;;2.68;65.41
13312;BME280;34033;48.672;9.376;2023-02-11T06:31:48;100447.94;;;2.72;65.89
13312;BME280;34033;48.672;9.376;2023-02-11T06:34:13;100452.53;;;2.81;64.52
13312;BME280;34033;48.672;9.376;2023-02-11T06:36:38;100461.94;;;2.85;64.74
13312;BME280;34033;48.672;9.376;2023-02-11T06:39:05;100461.81;;;2.96;69.89
13312;BME280;34033;48.672;9.376;2023-02-11T06:41:30;100458.50;;;2.93;65.04
13312;BME280;34033;48.672;9.376;2023-02-11T06:43:55;100456.28;;;2.96;63.39
13312;BME280;34033;48.672;9.376;2023-02-11T06:46:21;100475.34;;;2.97;63.14
13312;BME280;34033;48.672;9.376;2023-02-11T06:48:46;100460.94;;;3.00;63.17
13312;BME280;34033;48.672;9.376;2023-02-11T06:51:13;100462.06;;;2.99;62.83
13312;BME280;34033;48.672;9.376;2023-02-11T06:53:41;100454.31;;;3.01;63.46
13312;BME280;34033;48.672;9.376;2023-02-11T06:56:10;100458.63;;;3.12;62.98
13312;BME280;34033;48.672;9.376;2023-02-11T06:58:36;100466.31;;;3.15;62.72
13312;BME280;34033;48.672;9.376;2023-02-11T07:01:06;100466.63;;;3.14;62.92
13312;BME280;34033;48.672;9.376;2023-02-11T07:03:33;100473.59;;;3.06;63.27
13312;BME280;34033;48.672;9.376;2023-02-11T07:06:00;100466.47;;;3.00;63.46
13312;BME280;34033;48.672;9.376;2023-02-11T07:08:25;100475.00;;;3.04;63.28
13312;BME280;34033;48.672;9.376;2023-02-11T07:10:51;100480.22;;;3.05;62.76
13312;BME280;34033;48.672;9.376;2023-02-11T07:13:16;100476.91;;;3.08;63.19
13312;BME280;34033;48.672;9.376;2023-02-11T07:15:41;100481.34;;;3.04;63.64
13312;BME280;34033;48.672;9.376;2023-02-11T07:18:07;100479.13;;;3.06;62.59
13312;BME280;34033;48.672;9.376;2023-02-11T07:20:32;100484.31;;;3.13;62.78
13312;BME280;34033;48.672;9.376;2023-02-11T07:22:57;100482.00;;;3.20;64.32
13312;BME280;34033;48.672;9.376;2023-02-11T07:25:24;100473.97;;;3.23;64.64
13312;BME280;34033;48.672;9.376;2023-02-11T07:27:49;100473.25;;;3.36;64.90
13312;BME280;34033;48.672;9.376;2023-02-11T07:30:15;100463.75;;;5.11;92.79
13312;BME280;34033;48.672;9.376;2023-02-11T07:32:40;100455.16;;;4.80;80.48
13312;BME280;34033;48.672;9.376;2023-02-11T07:35:06;100451.53;;;4.66;70.75
13312;BME280;34033;48.672;9.376;2023-02-11T07:37:34;100451.69;;;4.56;66.39
13312;BME280;34033;48.672;9.376;2023-02-11T07:40:00;100459.56;;;4.49;64.51
13312;BME280;34033;48.672;9.376;2023-02-11T07:42:25;100452.44;;;4.43;64.52
13312;BME280;34033;48.672;9.376;2023-02-11T07:44:51;100449.69;;;4.43;63.06
13312;BME280;34033;48.672;9.376;2023-02-11T07:47:16;100459.09;;;4.60;63.65
13312;BME280;34033;48.672;9.376;2023-02-11T07:49:41;100457.69;;;4.63;63.08
13312;BME280;34033;48.672;9.376;2023-02-11T07:52:07;100467.69;;;4.59;62.55
13312;BME280;34033;48.672;9.376;2023-02-11T07:54:32;100465.63;;;4.51;61.75
13312;BME280;34033;48.672;9.376;2023-02-11T07:56:57;100462.41;;;4.44;61.73
13312;BME280;34033;48.672;9.376;2023-02-11T07:59:23;100465.78;;;4.41;61.45
13312;BME280;34033;48.672;9.376;2023-02-11T08:01:49;100465.19;;;4.44;61.37
13312;BME280;34033;48.672;9.376;2023-02-11T08:04:15;100458.53;;;4.45;61.16
13312;BME280;34033;48.672;9.376;2023-02-11T08:06:42;100457.00;;;4.52;61.58
13312;BME280;34033;48.672;9.376;2023-02-11T08:09:09;100460.31;;;4.54;60.62
13312;BME280;34033;48.672;9.376;2023-02-11T08:11:35;100458.97;;;4.52;60.15
13312;BME280;34033;48.672;9.376;2023-02-11T08:14:01;100462.88;;;4.51;60.83
13312;BME280;34033;48.672;9.376;2023-02-11T08:16:33;100460.84;;;4.56;61.00
13312;BME280;34033;48.672;9.376;2023-02-11T08:19:01;100462.16;;;4.59;60.78
13312;BME280;34033;48.672;9.376;2023-02-11T08:21:27;100455.00;;;6.13;87.13
13312;BME280;34033;48.672;9.376;2023-02-11T08:23:53;100444.13;;;8.11;80.85
13312;BME280;34033;48.672;9.376;2023-02-11T08:26:21;100445.63;;;8.94;63.12
13312;BME280;34033;48.672;9.376;2023-02-11T08:28:48;100448.31;;;8.30;57.95
13312;BME280;34033;48.672;9.376;2023-02-11T08:31:33;100459.09;;;7.58;55.62
13312;BME280;34033;48.672;9.376;2023-02-11T08:33:59;100456.56;;;7.08;54.75
13312;BME280;34033;48.672;9.376;2023-02-11T08:36:30;100458.41;;;6.68;54.53
13312;BME280;34033;48.672;9.376;2023-02-11T08:38:56;100466.97;;;6.36;55.25
13312;BME280;34033;48.672;9.376;2023-02-11T08:41:23;100467.94;;;6.18;56.00
13312;BME280;34033;48.672;9.376;2023-02-11T08:43:49;100472.19;;;6.02;56.14
13312;BME280;34033;48.672;9.376;2023-02-11T08:46:16;100475.22;;;5.92;56.45
13312;BME280;34033;48.672;9.376;2023-02-11T08:48:43;100471.13;;;5.89;57.15
13312;BME280;34033;48.672;9.376;2023-02-11T08:51:12;100472.00;;;5.84;56.87
13312;BME280;34033;48.672;9.376;2023-02-11T08:53:38;100473.13;;;5.70;56.83
13312;BME280;34033;48.672;9.376;2023-02-11T08:56:03;100456.00;;;5.68;57.32
13312;BME280;34033;48.672;9.376;2023-02-11T08:58:30;100458.44;;;5.69;57.59
13312;BME280;34033;48.672;9.376;2023-02-11T09:00:55;100461.75;;;5.71;57.09
13312;BME280;34033;48.672;9.376;2023-02-11T09:03:21;100458.22;;;5.79;57.17
13312;BME280;34033;48.672;9.376;2023-02-11T09:05:48;100449.22;;;5.88;56.91
13312;BME280;34033;48.672;9.376;2023-02-11T09:08:15;100454.84;;;5.96;57.23
13312;BME280;34033;48.672;9.376;2023-02-11T09:10:40;100448.97;;;5.98;57.53
13312;BME280;34033;48.672;9.376;2023-02-11T09:13:06;100449.78;;;5.84;56.69
13312;BME280;34033;48.672;9.376;2023-02-11T09:15:32;100456.78;;;5.82;56.32
13312;BME280;34033;48.672;9.376;2023-02-11T09:17:58;100456.16;;;5.85;56.80
13312;BME280;34033;48.672;9.376;2023-02-11T09:20:24;100464.09;;;5.92;56.97
13312;BME280;34033;48.672;9.376;2023-02-11T09:22:50;100440.75;;;6.06;57.44
13312;BME280;34033;48.672;9.376;2023-02-11T09:25:16;100445.56;;;6.14;56.23
13312;BME280;34033;48.672;9.376;2023-02-11T09:27:41;100441.47;;;6.12;55.90
13312;BME280;34033;48.672;9.376;2023-02-11T09:30:07;100424.97;;;6.15;55.96
13312;BME280;34033;48.672;9.376;2023-02-11T09:32:33;100426.16;;;6.23;55.96
13312;BME280;34033;48.672;9.376;2023-02-11T09:34:58;100431.28;;;6.29;56.25
13312;BME280;34033;48.672;9.376;2023-02-11T09:37:24;100427.50;;;6.25;54.71
13312;BME280;34033;48.672;9.376;2023-02-11T09:39:49;100432.66;;;6.18;54.83
13312;BME280;34033;48.672;9.376;2023-02-11T09:44:58;100419.94;;;6.40;55.74
13312;BME280;34033;48.672;9.376;2023-02-11T09:47:31;100417.13;;;6.53;55.65
13312;BME280;34033;48.672;9.376;2023-02-11T09:50:15;100410.34;;;6.68;55.57
13312;BME280;34033;48.672;9.376;2023-02-11T09:53:02;100411.28;;;6.63;55.37
13312;BME280;34033;48.672;9.376;2023-02-11T09:57:55;100412.84;;;6.78;55.75
13312;BME280;34033;48.672;9.376;2023-02-11T10:00:35;100414.06;;;6.86;55.18
13312;BME280;34033;48.672;9.376;2023-02-11T10:03:17;100417.25;;;7.01;54.78
13312;BME280;34033;48.672;9.376;2023-02-11T10:11:11;100425.19;;;6.63;54.29
13312;BME280;34033;48.672;9.376;2023-02-11T10:16:57;100428.19;;;6.45;53.55
13312;BME280;34033;48.672;9.376;2023-02-11T10:22:46;100426.69;;;6.25;56.46
13312;BME280;34033;48.672;9.376;2023-02-11T10:27:46;100423.72;;;6.21;55.16
13312;BME280;34033;48.672;9.376;2023-02-11T10:30:21;100419.19;;;6.25;54.75
13312;BME280;34033;48.672;9.376;2023-02-11T10:32:53;100419.03;;;6.44;55.28
13312;BME280;34033;48.672;9.376;2023-02-11T10:35:21;100421.41;;;6.59;54.53
13312;BME280;34033;48.672;9.376;2023-02-11T10:37:47;100419.72;;;6.72;54.29
13312;BME280;34033;48.672;9.376;2023-02-11T10:40:14;100426.56;;;6.97;55.08
13312;BME280;34033;48.672;9.376;2023-02-11T10:42:41;100424.72;;;7.23;55.61
13312;BME280;34033;48.672;9.376;2023-02-11T10:45:18;100415.00;;;7.43;54.48
13312;BME280;34033;48.672;9.376;2023-02-11T10:47:46;100407.38;;;7.66;54.21
13312;BME280;34033;48.672;9.376;2023-02-11T10:50:18;100400.69;;;7.84;54.23
13312;BME280;34033;48.672;9.376;2023-02-11T10:52:44;100401.53;;;8.02;54.15
13312;BME280;34033;48.672;9.376;2023-02-11T10:58:00;100395.81;;;8.32;53.41
13312;BME280;34033;48.672;9.376;2023-02-11T11:00:38;100389.28;;;8.46;52.84
13312;BME280;34033;48.672;9.376;2023-02-11T11:03:16;100386.31;;;8.59;53.87
13312;BME280;34033;48.672;9.376;2023-02-11T11:06:00;100379.41;;;8.74;53.24
13312;BME280;34033;48.672;9.376;2023-02-11T11:08:39;100373.63;;;8.79;52.94
13312;BME280;34033;48.672;9.376;2023-02-11T11:11:07;100364.31;;;8.75;52.40
13312;BME280;34033;48.672;9.376;2023-02-11T11:13:43;100366.78;;;8.76;52.02
13312;BME280;34033;48.672;9.376;2023-02-11T11:21:44;100370.31;;;8.94;50.82
13312;BME280;34033;48.672;9.376;2023-02-11T11:26:50;100358.75;;;9.13;50.10
13312;BME280;34033;48.672;9.376;2023-02-11T11:31:55;100347.66;;;9.34;51.10
13312;BME280;34033;48.672;9.376;2023-02-11T11:34:37;100339.41;;;9.46;50.19
13312;BME280;34033;48.672;9.376;2023-02-11T11:37:27;100345.09;;;9.49;49.86
13312;BME280;34033;48.672;9.376;2023-02-11T11:39:58;100344.25;;;9.57;50.31
13312;BME280;34033;48.672;9.376;2023-02-11T11:42:33;100344.88;;;9.63;50.17
13312;BME280;34033;48.672;9.376;2023-02-11T11:48:17;100335.34;;;9.64;48.11
13312;BME280;34033;48.672;9.376;2023-02-11T11:51:01;100336.31;;;9.68;47.59
13312;BME280;34033;48.672;9.376;2023-02-11T11:56:02;100330.72;;;9.68;48.93
13312;BME280;34033;48.672;9.376;2023-02-11T11:58:30;100333.59;;;9.80;49.87
13312;BME280;34033;48.672;9.376;2023-02-11T12:04:03;100326.38;;;10.21;51.07
13312;BME280;34033;48.672;9.376;2023-02-11T12:14:50;100317.94;;;10.86;49.79
13312;BME280;34033;48.672;9.376;2023-02-11T12:22:52;100319.16;;;11.10;48.92
13312;BME280;34033;48.672;9.376;2023-02-11T12:25:27;100319.88;;;11.31;48.76
13312;BME280;34033;48.672;9.376;2023-02-11T12:33:29;100321.66;;;12.68;48.56
13312;BME280;34033;48.672;9.376;2023-02-11T12:36:11;100325.97;;;12.65;47.67
13312;BME280;34033;48.672;9.376;2023-02-11T12:55:37;100306.25;;;12.06;46.37
13312;BME280;34033;48.672;9.376;2023-02-11T12:58:04;100305.56;;;11.97;45.72
13312;BME280;34033;48.672;9.376;2023-02-11T13:03:21;100301.06;;;11.68;45.55
13312;BME280;34033;48.672;9.376;2023-02-11T13:08:28;100300.25;;;11.43;45.80
13312;BME280;34033;48.672;9.376;2023-02-11T13:10:58;100298.88;;;11.37;46.67
13312;BME280;34033;48.672;9.376;2023-02-11T13:13:28;100295.97;;;11.34;47.03
13312;BME280;34033;48.672;9.376;2023-02-11T13:16:00;100303.06;;;11.31;46.43
13312;BME280;34033;48.672;9.376;2023-02-11T13:21:32;100295.13;;;11.21;47.30
13312;BME280;34033;48.672;9.376;2023-02-11T13:26:38;100293.50;;;10.96;46.70
13312;BME280;34033;48.672;9.376;2023-02-11T13:29:27;100288.50;;;11.01;46.96
13312;BME280;34033;48.672;9.376;2023-02-11T13:37:35;100273.44;;;11.30;46.65
13312;BME280;34033;48.672;9.376;2023-02-11T13:43:06;100282.75;;;10.98;46.35
13312;BME280;34033;48.672;9.376;2023-02-11T13:45:45;100282.66;;;10.94;46.64
13312;BME280;34033;48.672;9.376;2023-02-11T13:48:21;100285.69;;;11.01;46.58
13312;BME280;34033;48.672;9.376;2023-02-11T13:50:51;100277.66;;;11.12;46.97
13312;BME280;34033;48.672;9.376;2023-02-11T13:53:18;100279.75;;;11.27;46.66
13312;BME280;34033;48.672;9.376;2023-02-11T13:55:46;100281.63;;;11.35;47.77
13312;BME280;34033;48.672;9.376;2023-02-11T14:09:32;100267.56;;;11.47;47.36
13312;BME280;34033;48.672;9.376;2023-02-11T14:12:23;100269.91;;;11.57;48.25
13312;BME280;34033;48.672;9.376;2023-02-11T14:14:58;100271.09;;;11.56;47.57
13312;BME280;34033;48.672;9.376;2023-02-11T14:17:29;100267.13;;;11.45;47.63
13312;BME280;34033;48.672;9.376;2023-02-11T14:19:56;100267.47;;;11.44;47.83
13312;BME280;34033;48.672;9.376;2023-02-11T14:22:28;100271.34;;;11.39;47.34
13312;BME280;34033;48.672;9.376;2023-02-11T14:25:03;100271.56;;;11.46;48.13
13312;BME280;34033;48.672;9.376;2023-02-11T14:30:25;100274.91;;;11.76;48.10
13312;BME280;34033;48.672;9.376;2023-02-11T14:38:20;100263.41;;;11.93;48.18
13312;BME280;34033;48.672;9.376;2023-02-11T14:40:50;100262.34;;;11.98;48.03
13312;BME280;34033;48.672;9.376;2023-02-11T14:43:27;100269.69;;;12.02;48.00
13312;BME280;34033;48.672;9.376;2023-02-11T14:45:55;100266.00;;;12.14;48.05
13312;BME280;34033;48.672;9.376;2023-02-11T14:48:28;100275.03;;;12.35;48.45
13312;BME280;34033;48.672;9.376;2023-02-11T14:51:02;100269.84;;;12.49;48.95
13312;BME280;34033;48.672;9.376;2023-02-11T14:53:30;100277.25;;;12.58;47.69
13312;BME280;34033;48.672;9.376;2023-02-11T14:55:56;100277.53;;;12.68;46.60
13312;BME280;34033;48.672;9.376;2023-02-11T14:58:31;100286.34;;;12.82;46.63
13312;BME280;34033;48.672;9.376;2023-02-11T15:01:17;100283.81;;;12.93;47.04
13312;BME280;34033;48.672;9.376;2023-02-11T15:03:47;100291.72;;;13.19;51.26
13312;BME280;34033;48.672;9.376;2023-02-11T15:06:23;100294.44;;;13.31;47.68
13312;BME280;34033;48.672;9.376;2023-02-11T15:11:58;100288.31;;;13.60;46.99
13312;BME280;34033;48.672;9.376;2023-02-11T15:14:32;100284.41;;;13.65;45.90
13312;BME280;34033;48.672;9.376;2023-02-11T15:17:01;100286.03;;;13.66;46.21
13312;BME280;34033;48.672;9.376;2023-02-11T15:19:34;100284.69;;;13.60;45.73
13312;BME280;34033;48.672;9.376;2023-02-11T15:22:03;100288.09;;;13.69;46.52
13312;BME280;34033;48.672;9.376;2023-02-11T15:24:31;100283.28;;;13.69;46.21
13312;BME280;34033;48.672;9.376;2023-02-11T15:27:12;100278.25;;;13.59;45.21
13312;BME280;34033;48.672;9.376;2023-02-11T15:29:44;100283.34;;;13.54;48.36
13312;BME280;34033;48.672;9.376;2023-02-11T15:32:19;100289.84;;;13.58;48.46
13312;BME280;34033;48.672;9.376;2023-02-11T15:34:47;100284.44;;;13.49;46.43
13312;BME280;34033;48.672;9.376;2023-02-11T15:37:18;100291.59;;;13.47;46.51
13312;BME280;34033;48.672;9.376;2023-02-11T15:39:44;100291.88;;;13.42;46.30
13312;BME280;34033;48.672;9.376;2023-02-11T15:42:27;100286.81;;;13.31;46.96
13312;BME280;34033;48.672;9.376;2023-02-11T15:48:47;100291.78;;;13.07;46.67